createdAt,value
2023-01-12T00:01:28.483Z,5.15
2023-01-12T00:03:56.197Z,7.15
2023-01-12T00:06:24.135Z,5.43
2023-01-12T00:08:52.152Z,7.85
2023-01-12T00:11:20.975Z,6.60
2023-01-12T00:13:48.464Z,4.90
2023-01-12T00:16:37.962Z,6.55
2023-01-12T00:19:11.337Z,5.37
2023-01-12T00:22:00.354Z,5.82
2023-01-12T00:24:34.498Z,8.77
2023-01-12T00:27:04.173Z,6.68
2023-01-12T00:29:31.640Z,8.00
2023-01-12T00:32:00.737Z,7.30
2023-01-12T00:34:29.661Z,6.43
2023-01-12T00:36:58.234Z,7.22
2023-01-12T00:39:25.282Z,11.00
2023-01-12T00:42:11.110Z,6.30
2023-01-12T00:44:56.957Z,7.72
2023-01-12T00:47:24.194Z,7.97
2023-01-12T00:49:51.745Z,7.50
2023-01-12T00:52:35.502Z,10.95
2023-01-12T00:55:02.883Z,10.45
2023-01-12T00:57:29.911Z,11.85
2023-01-12T00:59:59.253Z,9.20
2023-01-12T01:02:28.411Z,7.75
2023-01-12T01:04:55.739Z,11.70
2023-01-12T01:07:22.762Z,8.07
2023-01-12T01:09:50.691Z,11.32
2023-01-12T01:12:19.157Z,8.23
2023-01-12T01:14:48.070Z,10.40
2023-01-12T01:17:15.633Z,7.87
2023-01-12T01:19:43.671Z,8.05
2023-01-12T01:22:12.482Z,8.98
2023-01-12T01:24:40.704Z,6.20
2023-01-12T01:27:07.747Z,7.47
2023-01-12T01:29:34.743Z,7.62
2023-01-12T01:32:02.095Z,9.25
2023-01-12T01:34:29.088Z,12.48
2023-01-12T01:36:56.102Z,13.38
2023-01-12T01:39:23.435Z,9.43
2023-01-12T01:41:50.453Z,11.27
2023-01-12T01:44:29.345Z,8.30
2023-01-12T01:47:06.912Z,11.98
2023-01-12T01:49:44.018Z,13.20
2023-01-12T01:52:21.635Z,15.00
2023-01-12T01:54:55.229Z,17.55
2023-01-12T01:57:26.203Z,18.20
2023-01-12T01:59:55.118Z,21.40
2023-01-12T02:02:23.545Z,19.62
2023-01-12T02:04:50.935Z,25.95
2023-01-12T02:07:18.316Z,20.50
2023-01-12T02:09:45.312Z,21.60
2023-01-12T02:12:31.470Z,20.08
2023-01-12T02:15:17.414Z,19.58
2023-01-12T02:17:58.883Z,29.10
2023-01-12T02:20:35.173Z,23.85
2023-01-12T02:23:21.018Z,23.80
2023-01-12T02:26:25.198Z,23.02
2023-01-12T02:28:52.767Z,27.15
2023-01-12T02:31:41.194Z,22.45
2023-01-12T02:34:47.282Z,19.85
2023-01-12T02:37:39.379Z,20.40
2023-01-12T02:40:11.137Z,21.48
2023-01-12T02:42:47.503Z,24.35
2023-01-12T02:45:34.630Z,23.50
2023-01-12T02:48:08.083Z,23.23
2023-01-12T02:51:12.877Z,24.33
2023-01-12T02:56:12.713Z,20.55
2023-01-12T02:58:46.827Z,26.85
2023-01-12T03:01:14.998Z,22.62
2023-01-12T03:03:42.746Z,23.20
2023-01-12T03:06:19.050Z,21.48
2023-01-12T03:08:48.075Z,24.75
2023-01-12T03:11:20.800Z,20.73
2023-01-12T03:13:56.271Z,25.10
2023-01-12T03:16:27.228Z,18.98
2023-01-12T03:18:59.057Z,20.40
2023-01-12T03:21:29.760Z,18.12
2023-01-12T03:24:02.114Z,16.48
2023-01-12T03:26:30.834Z,18.62
2023-01-12T03:29:15.447Z,16.98
2023-01-12T03:31:42.749Z,23.15
2023-01-12T03:34:10.288Z,17.62
2023-01-12T03:37:04.917Z,21.30
2023-01-12T03:40:00.478Z,17.20
2023-01-12T03:42:36.756Z,19.33
2023-01-12T03:45:25.355Z,17.75
2023-01-12T03:48:00.368Z,19.23
2023-01-12T03:50:34.349Z,17.30
2023-01-12T03:53:02.439Z,17.45
2023-01-12T03:55:31.102Z,19.58
2023-01-12T03:57:58.674Z,18.60
2023-01-12T04:00:27.290Z,18.02
2023-01-12T04:03:24.637Z,18.80
2023-01-12T04:05:51.808Z,20.83
2023-01-12T04:08:19.148Z,20.40
2023-01-12T04:10:46.150Z,18.95
2023-01-12T04:13:13.361Z,18.65
2023-01-12T04:15:42.635Z,20.12
2023-01-12T04:18:10.741Z,20.05
2023-01-12T04:20:38.578Z,16.45
2023-01-12T04:23:09.532Z,18.67
2023-01-12T04:25:36.687Z,19.65
2023-01-12T04:28:07.154Z,16.40
2023-01-12T04:30:34.683Z,24.45
2023-01-12T04:33:08.028Z,22.00
2023-01-12T04:35:36.275Z,18.65
2023-01-12T04:38:07.381Z,21.30
2023-01-12T04:40:34.459Z,19.92
2023-01-12T04:43:01.792Z,26.08
2023-01-12T04:45:31.237Z,22.08
2023-01-12T04:48:09.518Z,23.95
2023-01-12T04:50:38.165Z,20.80
2023-01-12T04:53:07.215Z,27.02
2023-01-12T04:55:36.806Z,22.35
2023-01-12T04:58:04.482Z,26.83
2023-01-12T05:00:31.705Z,27.25
2023-01-12T05:03:02.154Z,25.20
2023-01-12T05:05:31.072Z,25.55
2023-01-12T05:08:21.196Z,20.45
2023-01-12T05:10:52.860Z,25.58
2023-01-12T05:13:20.354Z,23.15
2023-01-12T05:15:47.463Z,24.00
2023-01-12T05:18:15.560Z,21.58
2023-01-12T05:20:42.723Z,28.05
2023-01-12T05:23:09.808Z,22.48
2023-01-12T05:25:37.193Z,24.58
2023-01-12T05:28:04.506Z,24.67
2023-01-12T05:30:32.198Z,21.85
2023-01-12T05:32:59.653Z,26.60
2023-01-12T05:35:26.751Z,18.33
2023-01-12T05:37:56.712Z,24.33
2023-01-12T05:40:24.622Z,28.02
2023-01-12T05:43:10.459Z,22.02
2023-01-12T05:45:38.033Z,26.67
2023-01-12T05:48:05.326Z,28.20
2023-01-12T05:50:32.572Z,31.25
2023-01-12T05:53:08.815Z,22.42
2023-01-12T05:55:37.459Z,24.70
2023-01-12T05:58:04.754Z,24.50
2023-01-12T06:00:32.135Z,24.12
2023-01-12T06:02:59.476Z,25.73
2023-01-12T06:05:26.660Z,22.70
2023-01-12T06:07:53.770Z,24.58
2023-01-12T06:10:21.162Z,25.10
2023-01-12T06:13:08.908Z,22.08
2023-01-12T06:15:36.338Z,23.45
2023-01-12T06:18:03.592Z,23.58
2023-01-12T06:20:30.718Z,25.58
2023-01-12T06:23:02.339Z,24.45
2023-01-12T06:25:30.131Z,20.42
2023-01-12T06:27:57.750Z,24.55
2023-01-12T06:30:25.095Z,27.30
2023-01-12T06:32:52.218Z,18.50
2023-01-12T06:35:20.034Z,23.38
2023-01-12T06:37:47.363Z,21.75
2023-01-12T06:40:15.566Z,23.58
2023-01-12T06:42:42.982Z,26.92
2023-01-12T06:45:10.674Z,23.20
2023-01-12T06:47:49.315Z,23.40
2023-01-12T06:50:16.982Z,24.90
2023-01-12T06:52:44.103Z,21.25
2023-01-12T06:55:11.386Z,21.55
2023-01-12T06:57:38.905Z,24.83
2023-01-12T07:00:06.852Z,28.05
2023-01-12T07:02:34.474Z,27.73
2023-01-12T07:05:01.832Z,18.02
2023-01-12T07:07:28.913Z,21.77
2023-01-12T07:09:57.009Z,23.30
2023-01-12T07:12:24.912Z,27.20
2023-01-12T07:14:53.086Z,24.90
2023-01-12T07:17:20.151Z,21.30
2023-01-12T07:19:47.699Z,22.92
2023-01-12T07:22:14.814Z,26.33
2023-01-12T07:24:41.945Z,24.70
2023-01-12T07:27:09.315Z,25.75
2023-01-12T07:29:36.382Z,20.12
2023-01-12T07:32:03.869Z,22.62
2023-01-12T07:34:31.345Z,21.95
2023-01-12T07:36:58.392Z,27.73
2023-01-12T07:39:25.867Z,25.95
2023-01-12T07:42:12.543Z,24.67
2023-01-12T07:44:40.418Z,23.90
2023-01-12T07:47:07.849Z,22.08
2023-01-12T07:49:34.971Z,24.73
2023-01-12T07:52:02.049Z,30.70
2023-01-12T07:54:29.505Z,21.60
2023-01-12T07:56:57.952Z,24.33
2023-01-12T07:59:25.853Z,25.77
2023-01-12T08:01:54.576Z,24.85
2023-01-12T08:04:22.640Z,27.90
2023-01-12T08:06:49.765Z,25.12
2023-01-12T08:09:16.921Z,24.92
2023-01-12T08:11:44.358Z,23.50
2023-01-12T08:14:16.975Z,27.65
2023-01-12T08:16:46.549Z,29.58
2023-01-12T08:19:19.282Z,26.92
2023-01-12T08:21:52.685Z,25.77
2023-01-12T08:24:22.123Z,29.45
2023-01-12T08:26:51.490Z,31.40
2023-01-12T08:29:30.037Z,33.33
2023-01-12T08:32:04.850Z,39.40
2023-01-12T08:34:33.672Z,31.35
2023-01-12T08:37:05.086Z,34.92
2023-01-12T08:39:35.197Z,30.35
2023-01-12T08:42:03.671Z,42.17
2023-01-12T08:44:35.428Z,32.58
2023-01-12T08:47:04.526Z,35.25
2023-01-12T08:49:32.949Z,39.38
2023-01-12T08:51:59.986Z,29.87
2023-01-12T08:54:27.458Z,31.00
2023-01-12T08:56:54.888Z,35.67
2023-01-12T08:59:23.018Z,33.20
2023-01-12T09:01:50.417Z,32.60
2023-01-12T09:04:17.547Z,31.10
2023-01-12T09:06:45.383Z,29.75
2023-01-12T09:09:16.841Z,32.38
2023-01-12T09:11:44.525Z,26.25
2023-01-12T09:14:12.721Z,24.08
2023-01-12T09:16:40.535Z,21.62
2023-01-12T09:19:09.568Z,26.48
2023-01-12T09:21:38.580Z,24.60
2023-01-12T09:24:06.462Z,21.75
2023-01-12T09:26:38.914Z,21.12
2023-01-12T09:29:07.814Z,20.53
2023-01-12T09:31:36.147Z,25.40
2023-01-12T09:34:05.107Z,19.50
2023-01-12T09:36:34.755Z,18.80
2023-01-12T09:39:02.117Z,19.05
2023-01-12T09:41:50.082Z,22.83
2023-01-12T09:44:56.027Z,22.60
2023-01-12T09:47:40.675Z,23.95
2023-01-12T09:50:16.440Z,18.83
2023-01-12T09:52:57.335Z,21.12
2023-01-12T09:55:26.485Z,19.08
2023-01-12T09:58:16.798Z,18.85
2023-01-12T10:00:44.075Z,18.33
2023-01-12T10:03:11.365Z,21.70
2023-01-12T10:05:49.785Z,23.10
2023-01-12T10:08:43.100Z,24.98
2023-01-12T10:11:17.656Z,23.30
2023-01-12T10:14:05.198Z,27.13
2023-01-12T10:17:13.989Z,22.80
2023-01-12T10:20:00.024Z,22.27
2023-01-12T10:22:40.043Z,24.35
2023-01-12T10:25:15.126Z,25.48
2023-01-12T10:27:44.467Z,25.08
2023-01-12T10:30:13.803Z,24.90
2023-01-12T10:32:42.319Z,22.75
2023-01-12T10:35:18.097Z,23.50
2023-01-12T10:37:51.642Z,24.30
2023-01-12T10:40:26.782Z,25.33
2023-01-12T10:43:20.009Z,19.58
2023-01-12T10:46:08.569Z,23.25
2023-01-12T10:48:36.803Z,22.13
2023-01-12T10:51:06.275Z,22.33
2023-01-12T10:53:38.805Z,24.85
2023-01-12T10:56:36.601Z,27.15
2023-01-12T10:59:12.814Z,25.17
2023-01-12T11:02:00.164Z,24.70
2023-01-12T11:04:29.415Z,23.38
2023-01-12T11:07:04.957Z,28.23
2023-01-12T11:09:32.417Z,25.27
2023-01-12T11:12:01.937Z,25.27
2023-01-12T11:14:32.189Z,27.80
2023-01-12T11:17:28.799Z,24.52
2023-01-12T11:19:57.653Z,23.10
2023-01-12T11:22:27.891Z,25.30
2023-01-12T11:25:07.437Z,24.50
2023-01-12T11:27:49.317Z,27.45
2023-01-12T11:30:28.238Z,27.35
2023-01-12T11:33:18.742Z,30.80
2023-01-12T11:35:53.121Z,27.13
2023-01-12T11:38:33.682Z,25.23
2023-01-12T11:41:01.738Z,23.45
2023-01-12T11:43:55.859Z,27.45
2023-01-12T11:46:35.947Z,30.23
2023-01-12T11:49:24.361Z,26.83
2023-01-12T11:51:56.444Z,27.00
2023-01-12T11:54:25.382Z,27.87
2023-01-12T11:56:55.331Z,23.48
2023-01-12T12:00:01.585Z,24.75
2023-01-12T12:05:23.290Z,22.48
2023-01-12T12:07:53.023Z,25.58
2023-01-12T12:10:25.461Z,26.08
2023-01-12T12:13:13.593Z,27.42
2023-01-12T12:16:15.944Z,25.45
2023-01-12T12:18:51.209Z,29.92
2023-01-12T12:21:30.406Z,25.27
2023-01-12T12:24:09.224Z,23.50
2023-01-12T12:26:43.447Z,24.37
2023-01-12T12:29:30.823Z,26.00
2023-01-12T12:32:11.498Z,25.02
2023-01-12T12:34:54.962Z,21.85
2023-01-12T12:37:31.206Z,26.73
2023-01-12T12:40:04.067Z,24.37
2023-01-12T12:43:03.626Z,21.35
2023-01-12T12:45:50.741Z,27.25
2023-01-12T12:48:50.359Z,25.25
2023-01-12T12:51:20.344Z,26.70
2023-01-12T12:53:50.373Z,23.75
2023-01-12T12:56:20.942Z,19.92
2023-01-12T12:58:53.748Z,22.20
2023-01-12T13:01:20.984Z,19.08
2023-01-12T13:03:52.401Z,17.33
2023-01-12T13:06:26.483Z,23.83
2023-01-12T13:09:15.464Z,17.83
2023-01-12T13:11:53.818Z,18.02
2023-01-12T13:14:25.247Z,18.83
2023-01-12T13:16:54.986Z,21.45
2023-01-12T13:19:41.235Z,22.15
2023-01-12T13:22:40.700Z,19.95
2023-01-12T13:25:20.462Z,17.37
2023-01-12T13:27:59.892Z,19.45
2023-01-12T13:30:30.168Z,18.35
2023-01-12T13:33:15.534Z,19.10
2023-01-12T13:35:46.423Z,17.98
2023-01-12T13:38:44.547Z,23.33
2023-01-12T13:41:15.180Z,17.77
2023-01-12T13:43:48.216Z,20.88
2023-01-12T13:46:18.060Z,22.53
2023-01-12T13:48:50.419Z,20.98
2023-01-12T13:51:20.731Z,22.77
2023-01-12T13:53:59.341Z,20.33
2023-01-12T13:56:26.991Z,18.52
2023-01-12T13:59:02.297Z,17.95
2023-01-12T14:01:40.409Z,20.75
2023-01-12T14:04:13.848Z,16.87
2023-01-12T14:06:56.096Z,15.65
2023-01-12T14:10:05.413Z,18.37
2023-01-12T14:12:58.525Z,19.55
2023-01-12T14:15:52.389Z,17.80
2023-01-12T14:18:21.169Z,17.08
2023-01-12T14:20:56.776Z,19.08
2023-01-12T14:23:25.162Z,20.10
2023-01-12T14:26:10.569Z,15.73
2023-01-12T14:28:39.299Z,15.38
2023-01-12T14:31:08.605Z,15.30
2023-01-12T14:33:37.771Z,18.15
2023-01-12T14:36:07.221Z,13.35
2023-01-12T14:38:35.159Z,14.65
2023-01-12T14:41:05.731Z,16.48
2023-01-12T14:43:52.520Z,16.10
2023-01-12T14:46:31.403Z,19.92
2023-01-12T14:48:58.371Z,22.62
2023-01-12T14:51:36.414Z,18.90
2023-01-12T14:54:03.526Z,21.85
2023-01-12T14:56:50.217Z,21.37
2023-01-12T14:59:22.752Z,19.10
2023-01-12T15:01:52.889Z,19.10
2023-01-12T15:04:22.865Z,21.40
2023-01-12T15:07:20.414Z,19.48
2023-01-12T15:10:09.522Z,19.23
2023-01-12T15:12:53.831Z,20.95
2023-01-12T15:15:49.420Z,24.75
2023-01-12T15:18:35.539Z,22.20
2023-01-12T15:21:22.619Z,19.37
2023-01-12T15:24:08.742Z,24.02
2023-01-12T15:26:35.960Z,18.95
2023-01-12T15:29:03.390Z,27.35
2023-01-12T15:31:35.053Z,19.45
2023-01-12T15:34:02.600Z,20.02
2023-01-12T15:36:30.141Z,18.35
2023-01-12T15:38:57.423Z,19.25
2023-01-12T15:41:47.967Z,22.55
2023-01-12T15:44:17.539Z,23.10
2023-01-12T15:46:44.912Z,21.45
2023-01-12T15:49:14.054Z,21.10
2023-01-12T15:51:46.716Z,23.62
2023-01-12T15:54:14.102Z,22.90
2023-01-12T15:56:41.757Z,20.92
2023-01-12T15:59:09.231Z,18.45
2023-01-12T16:01:45.808Z,21.73
2023-01-12T16:04:42.243Z,21.98
2023-01-12T16:07:05.673Z,19.00
2023-01-12T16:09:33.019Z,19.35
2023-01-12T16:12:00.121Z,20.08
2023-01-12T16:14:27.725Z,19.80
2023-01-12T16:16:55.784Z,19.45
2023-01-12T16:19:23.666Z,25.98
2023-01-12T16:21:51.071Z,21.33
2023-01-12T16:24:18.503Z,23.70
2023-01-12T16:26:46.441Z,20.65
2023-01-12T16:29:13.546Z,23.40
2023-01-12T16:31:40.991Z,23.40
2023-01-12T16:34:08.119Z,23.70
2023-01-12T16:36:35.411Z,23.73
2023-01-12T16:39:02.809Z,20.17
2023-01-12T16:41:30.198Z,19.12
2023-01-12T16:43:58.452Z,19.73
2023-01-12T16:46:25.873Z,17.05
2023-01-12T16:48:55.466Z,15.18
2023-01-12T16:51:23.048Z,16.48
2023-01-12T16:53:51.541Z,16.98
2023-01-12T16:56:18.704Z,22.23
2023-01-12T16:58:48.540Z,14.00
2023-01-12T17:01:18.970Z,18.75
2023-01-12T17:03:46.198Z,15.60
2023-01-12T17:06:17.072Z,16.40
2023-01-12T17:08:44.520Z,17.77
2023-01-12T17:11:13.349Z,19.50
2023-01-12T17:13:40.592Z,15.55
2023-01-12T17:16:10.047Z,16.02
2023-01-12T17:18:38.284Z,13.50
2023-01-12T17:21:09.071Z,15.93
2023-01-12T17:23:39.372Z,14.85
2023-01-12T17:26:08.241Z,14.18
2023-01-12T17:28:35.436Z,21.15
2023-01-12T17:31:10.386Z,18.40
2023-01-12T17:33:38.716Z,17.42
2023-01-12T17:36:07.478Z,20.80
2023-01-12T17:38:35.616Z,16.52
2023-01-12T17:41:34.398Z,21.33
2023-01-12T17:44:05.344Z,20.42
2023-01-12T17:46:33.054Z,24.67
2023-01-12T17:49:02.168Z,22.15
2023-01-12T17:51:29.603Z,21.50
2023-01-12T17:54:01.584Z,22.02
2023-01-12T17:56:31.419Z,21.08
2023-01-12T17:58:59.625Z,21.55
2023-01-12T18:01:29.303Z,22.60
2023-01-12T18:03:58.345Z,24.65
2023-01-12T18:06:27.136Z,26.83
2023-01-12T18:09:01.808Z,22.85
2023-01-12T18:11:31.274Z,23.17
2023-01-12T18:13:59.469Z,16.92
2023-01-12T18:16:26.742Z,14.52
2023-01-12T18:18:54.377Z,19.58
2023-01-12T18:21:24.027Z,19.00
2023-01-12T18:23:51.763Z,22.42
2023-01-12T18:26:26.253Z,17.40
2023-01-12T18:28:54.609Z,19.30
2023-01-12T18:31:25.709Z,20.58
2023-01-12T18:33:59.299Z,14.93
2023-01-12T18:36:26.658Z,19.05
2023-01-12T18:38:55.247Z,17.20
2023-01-12T18:41:42.487Z,21.87
2023-01-12T18:44:10.521Z,19.52
2023-01-12T18:47:01.268Z,17.50
2023-01-12T18:49:31.099Z,17.27
2023-01-12T18:52:17.477Z,17.62
2023-01-12T18:54:47.380Z,13.98
2023-01-12T18:57:19.104Z,18.17
2023-01-12T18:59:47.553Z,18.02
2023-01-12T19:02:15.972Z,17.12
2023-01-12T19:04:43.356Z,12.55
2023-01-12T19:07:12.959Z,20.88
2023-01-12T19:09:40.074Z,12.23
2023-01-12T19:12:07.177Z,14.63
2023-01-12T19:14:54.379Z,17.45
2023-01-12T19:17:27.076Z,13.00
2023-01-12T19:19:55.606Z,16.15
2023-01-12T19:22:41.424Z,14.43
2023-01-12T19:25:30.926Z,14.80
2023-01-12T19:28:17.382Z,13.15
2023-01-12T19:30:46.629Z,13.93
2023-01-12T19:33:17.314Z,13.10
2023-01-12T19:35:45.939Z,14.70
2023-01-12T19:38:14.466Z,13.50
2023-01-12T19:40:53.614Z,13.88
2023-01-12T19:43:26.144Z,11.23
2023-01-12T19:45:58.205Z,11.82
2023-01-12T19:48:26.770Z,12.95
2023-01-12T19:50:54.334Z,13.82
2023-01-12T19:53:25.871Z,12.75
2023-01-12T19:55:53.901Z,11.65
2023-01-12T19:58:25.025Z,10.23
2023-01-12T20:00:54.716Z,11.75
2023-01-12T20:03:23.853Z,14.77
2023-01-12T20:05:51.930Z,12.13
2023-01-12T20:08:20.733Z,11.50
2023-01-12T20:10:59.434Z,15.38
2023-01-12T20:13:27.333Z,14.85
2023-01-12T20:15:56.812Z,14.95
2023-01-12T20:18:24.395Z,15.45
2023-01-12T20:20:54.162Z,13.93
2023-01-12T20:23:21.563Z,18.50
2023-01-12T20:25:48.643Z,16.67
2023-01-12T20:28:15.740Z,14.55
2023-01-12T20:30:43.519Z,11.95
2023-01-12T20:33:11.171Z,16.92
2023-01-12T20:35:42.203Z,17.12
2023-01-12T20:38:15.499Z,17.50
2023-01-12T20:40:44.461Z,15.63
2023-01-12T20:43:11.882Z,14.87
2023-01-12T20:45:40.528Z,14.80
2023-01-12T20:48:07.671Z,19.08
2023-01-12T20:50:35.074Z,15.38
2023-01-12T20:53:02.085Z,17.73
2023-01-12T20:55:29.394Z,18.12
2023-01-12T20:57:56.857Z,16.58
2023-01-12T21:00:24.295Z,18.55
2023-01-12T21:02:51.308Z,15.73
2023-01-12T21:05:18.625Z,22.62
2023-01-12T21:07:47.489Z,16.02
2023-01-12T21:10:15.935Z,21.23
2023-01-12T21:12:43.542Z,16.33
2023-01-12T21:15:13.464Z,17.75
2023-01-12T21:17:41.133Z,20.05
2023-01-12T21:20:09.527Z,18.60
2023-01-12T21:22:36.836Z,19.48
2023-01-12T21:25:05.088Z,17.25
2023-01-12T21:27:33.467Z,15.05
2023-01-12T21:30:00.508Z,16.65
2023-01-12T21:32:28.852Z,16.75
2023-01-12T21:34:57.006Z,15.45
2023-01-12T21:37:24.140Z,14.57
2023-01-12T21:39:53.326Z,16.50
2023-01-12T21:42:39.624Z,19.60
2023-01-12T21:45:07.068Z,17.87
2023-01-12T21:47:34.342Z,17.10
2023-01-12T21:50:01.461Z,18.17
2023-01-12T21:52:32.933Z,20.88
2023-01-12T21:55:00.387Z,17.85
2023-01-12T21:57:27.434Z,18.12
2023-01-12T21:59:54.538Z,17.92
2023-01-12T22:02:22.036Z,20.08
2023-01-12T22:04:49.393Z,28.67
2023-01-12T22:07:16.522Z,32.25
2023-01-12T22:09:43.583Z,28.55
2023-01-12T22:12:10.951Z,29.10
2023-01-12T22:14:38.052Z,32.60
2023-01-12T22:17:05.330Z,34.22
2023-01-12T22:19:32.813Z,35.90
2023-01-12T22:22:00.136Z,31.42
2023-01-12T22:24:27.358Z,38.63
2023-01-12T22:26:54.907Z,28.25
2023-01-12T22:29:22.063Z,34.70
2023-01-12T22:31:49.168Z,40.25
2023-01-12T22:34:17.008Z,39.85
2023-01-12T22:36:44.010Z,42.90
2023-01-12T22:39:11.752Z,41.00
2023-01-12T22:41:41.910Z,31.15
2023-01-12T22:44:09.019Z,37.70
2023-01-12T22:46:36.948Z,40.55
2023-01-12T22:49:04.386Z,33.60
2023-01-12T22:51:31.709Z,32.53
2023-01-12T22:53:58.850Z,30.88
2023-01-12T22:56:26.362Z,30.62
2023-01-12T22:58:55.080Z,29.02
2023-01-12T23:01:23.418Z,24.87
2023-01-12T23:03:55.911Z,27.20
2023-01-12T23:06:25.094Z,26.90
2023-01-12T23:08:52.652Z,26.55
2023-01-12T23:11:25.283Z,22.48
2023-01-12T23:13:54.853Z,25.83
2023-01-12T23:16:22.489Z,23.35
2023-01-12T23:18:50.387Z,22.33
2023-01-12T23:21:27.827Z,19.37
2023-01-12T23:23:59.433Z,24.05
2023-01-12T23:26:31.104Z,23.87
2023-01-12T23:29:00.360Z,24.75
2023-01-12T23:31:30.353Z,26.35
2023-01-12T23:33:57.890Z,24.27
2023-01-12T23:36:26.468Z,18.60
2023-01-12T23:38:58.522Z,25.17
2023-01-12T23:41:27.545Z,22.83
2023-01-12T23:43:57.186Z,26.30
2023-01-12T23:46:24.637Z,22.95
2023-01-12T23:48:54.157Z,24.60
2023-01-12T23:51:23.116Z,21.05
2023-01-12T23:53:59.305Z,23.92
2023-01-12T23:56:28.923Z,23.10
2023-01-12T23:58:56.213Z,26.65
